Time;durP1;ratioP1;P1;durP2;ratioP2;P2;SDS_P1;SDS_P2;PMS_P1;PMS_P2;Temp;Humidity;BMP_temperature;BMP_pressure;BME280_temperature;BME280_humidity;BME280_pressure;Samples;Min_cycle;Max_cycle;Signal;HPM_P1;HPM_P2
2021/10/13 00:02:09;;;;;;;8.77;4.17;;;22.10;51.60;;;;;;5105618;28;20487;-83
2021/10/13 00:04:35;;;;;;;5.83;3.90;;;22.10;51.60;;;;;;5106754;28;20178;-83
2021/10/13 00:07:01;;;;;;;6.93;4.37;;;22.10;51.60;;;;;;5106979;28;20572;-83
2021/10/13 00:09:27;;;;;;;5.47;3.70;;;22.10;52.20;;;;;;5106860;28;20188;-83
2021/10/13 00:15:15;;;;;;;5.43;3.60;;;22.10;51.60;;;;;;5121205;28;20302;-83
2021/10/13 00:17:43;;;;;;;6.27;3.80;;;22.10;51.70;;;;;;5113640;28;20465;-83
2021/10/13 00:20:09;;;;;;;5.93;3.57;;;22.10;51.70;;;;;;5089305;28;20220;-83
2021/10/13 00:22:38;;;;;;;5.60;3.93;;;22.10;51.70;;;;;;5088544;28;20449;-83
2021/10/13 00:25:12;;;;;;;4.87;3.50;;;22.10;51.70;;;;;;5089202;28;20962;-83
2021/10/13 00:27:37;;;;;;;4.97;4.40;;;22.10;51.70;;;;;;5108209;28;20415;-83
2021/10/13 00:33:28;;;;;;;5.67;3.80;;;22.10;51.60;;;;;;5107201;28;20209;-83
2021/10/13 00:35:54;;;;;;;6.30;4.10;;;22.00;51.60;;;;;;5106323;28;20422;-83
2021/10/13 00:38:23;;;;;;;4.80;3.70;;;22.10;51.70;;;;;;5107569;28;20498;-83
2021/10/13 00:40:49;;;;;;;4.73;3.40;;;22.10;51.70;;;;;;5089186;28;20205;-83
2021/10/13 00:43:14;;;;;;;6.07;3.67;;;22.10;51.70;;;;;;5090274;28;20431;-83
2021/10/13 00:45:40;;;;;;;4.30;3.27;;;22.10;51.70;;;;;;5108576;28;20177;-83
2021/10/13 00:48:09;;;;;;;6.83;4.40;;;22.10;51.70;;;;;;5089880;28;20223;-83
2021/10/13 00:50:37;;;;;;;6.37;4.20;;;22.00;51.60;;;;;;5108867;28;20201;-83
2021/10/13 00:53:03;;;;;;;6.30;4.10;;;22.10;51.70;;;;;;5108083;28;20403;-83
2021/10/13 00:58:51;;;;;;;4.20;2.90;;;22.10;51.60;;;;;;5107385;28;20390;-83
2021/10/13 01:05:01;;;;;;;5.00;3.30;;;22.10;51.70;;;;;;5108976;27;20523;-83
2021/10/13 01:07:29;;;;;;;7.00;3.90;;;22.00;51.70;;;;;;5090329;28;20422;-83
2021/10/13 01:10:06;;;;;;;4.80;3.03;;;22.00;51.70;;;;;;5089822;28;20416;-83
2021/10/13 01:12:53;;;;;;;5.30;3.23;;;22.00;51.70;;;;;;5089293;28;20427;-83
2021/10/13 01:15:25;;;;;;;6.77;3.63;;;22.00;51.70;;;;;;5094820;28;20427;-82
2021/10/13 01:18:19;;;;;;;4.47;3.13;;;22.00;51.70;;;;;;5101409;28;20403;-82
2021/10/13 01:21:21;;;;;;;4.90;3.07;;;22.00;51.70;;;;;;5107567;28;20428;-81
2021/10/13 01:23:56;;;;;;;5.60;3.57;;;21.90;51.70;;;;;;5108429;28;20415;-82
2021/10/13 01:26:48;;;;;;;4.60;3.13;;;21.90;51.70;;;;;;5107885;28;20935;-82
2021/10/13 01:29:18;;;;;;;5.50;3.40;;;22.00;51.80;;;;;;5108288;28;20411;-82
2021/10/13 01:31:53;;;;;;;4.57;3.33;;;21.90;51.80;;;;;;5126223;28;20439;-81
2021/10/13 01:34:25;;;;;;;4.57;3.40;;;21.90;51.80;;;;;;5126408;28;20445;-82
2021/10/13 01:37:14;;;;;;;5.27;3.07;;;21.90;51.80;;;;;;5125187;28;20479;-82
2021/10/13 01:40:01;;;;;;;4.60;3.03;;;21.90;51.80;;;;;;5125497;28;20954;-82
2021/10/13 01:42:34;;;;;;;4.73;3.37;;;21.90;51.80;;;;;;5109684;28;20769;-82
2021/10/13 01:45:01;;;;;;;6.77;3.00;;;21.80;51.80;;;;;;5087317;28;20924;-82
2021/10/13 01:47:28;;;;;;;5.33;3.20;;;21.80;51.80;;;;;;5104380;28;20415;-82
2021/10/13 01:49:57;;;;;;;5.90;3.40;;;21.80;51.80;;;;;;5087153;28;20507;-82
2021/10/13 01:52:27;;;;;;;4.43;2.80;;;21.90;51.80;;;;;;5105811;28;20459;-81
2021/10/13 01:54:56;;;;;;;3.80;2.90;;;21.90;52.40;;;;;;5086877;28;20408;-82
2021/10/13 01:57:25;;;;;;;5.97;3.40;;;21.90;51.80;;;;;;5105289;28;20424;-81
2021/10/13 01:59:57;;;;;;;3.90;2.63;;;21.90;51.80;;;;;;5086857;28;20419;-82
2021/10/13 02:02:28;;;;;;;4.33;3.23;;;21.90;51.80;;;;;;5087031;28;20403;-81
2021/10/13 02:04:58;;;;;;;4.47;3.30;;;21.90;51.80;;;;;;5087787;28;20415;-81
2021/10/13 02:07:27;;;;;;;5.20;3.43;;;21.90;51.70;;;;;;5087767;28;20414;-81
2021/10/13 02:09:57;;;;;;;4.10;2.80;;;21.90;51.70;;;;;;5088091;28;20457;-81
2021/10/13 02:12:25;;;;;;;5.80;3.40;;;21.90;51.70;;;;;;5105314;28;20426;-81
2021/10/13 02:14:52;;;;;;;3.90;2.63;;;21.90;51.70;;;;;;5087704;28;20416;-81
2021/10/13 02:17:20;;;;;;;6.93;4.50;;;21.90;51.70;;;;;;5087815;28;20727;-81
2021/10/13 02:19:47;;;;;;;4.10;3.30;;;21.90;51.60;;;;;;5087297;28;20420;-81
2021/10/13 02:22:15;;;;;;;4.27;3.20;;;22.00;51.70;;;;;;5087195;28;20450;-81
2021/10/13 02:24:52;;;;;;;4.33;2.90;;;22.00;51.70;;;;;;5086824;28;20416;-81
2021/10/13 02:27:44;;;;;;;4.23;3.53;;;22.00;51.70;;;;;;5087258;28;20423;-81
2021/10/13 02:30:14;;;;;;;3.60;3.00;;;22.00;51.70;;;;;;5105670;28;20459;-81
2021/10/13 02:32:40;;;;;;;4.47;3.13;;;22.00;51.70;;;;;;5087366;28;20479;-81
2021/10/13 02:35:06;;;;;;;4.30;2.80;;;22.00;51.70;;;;;;5096804;28;20423;-81
2021/10/13 02:37:34;;;;;;;3.70;3.00;;;22.00;51.70;;;;;;5117691;28;20415;-81
2021/10/13 02:40:00;;;;;;;3.90;3.03;;;21.90;51.60;;;;;;5116637;28;20423;-81
2021/10/13 02:42:26;;;;;;;4.10;2.80;;;22.00;51.70;;;;;;5116447;28;20863;-81
2021/10/13 02:44:55;;;;;;;4.73;2.80;;;22.00;51.70;;;;;;5100247;28;20211;-81
2021/10/13 02:47:43;;;;;;;3.80;2.73;;;22.00;51.70;;;;;;5103130;28;20185;-81
2021/10/13 02:50:29;;;;;;;4.57;2.90;;;22.00;51.60;;;;;;5108290;28;20828;-81
2021/10/13 02:53:25;;;;;;;5.17;3.50;;;22.00;51.70;;;;;;5097184;28;20440;-81
2021/10/13 02:56:12;;;;;;;4.07;2.60;;;22.00;51.70;;;;;;5097900;28;20431;-81
2021/10/13 02:58:53;;;;;;;6.80;3.47;;;22.00;51.70;;;;;;5101015;27;20414;-81
2021/10/13 03:01:28;;;;;;;4.80;2.33;;;21.90;51.60;;;;;;5117736;28;20804;-81
2021/10/13 03:03:59;;;;;;;3.30;2.70;;;21.90;51.60;;;;;;5112299;27;20417;-82
2021/10/13 03:06:30;;;;;;;3.33;2.43;;;21.90;51.60;;;;;;5100086;28;20430;-82
2021/10/13 03:08:56;;;;;;;3.93;2.13;;;21.90;51.60;;;;;;5109958;28;20422;-82
2021/10/13 03:11:27;;;;;;;4.10;2.73;;;21.90;51.60;;;;;;5109383;28;20480;-82
2021/10/13 03:13:57;;;;;;;3.63;2.57;;;21.90;51.60;;;;;;5103905;28;20442;-81
2021/10/13 03:16:25;;;;;;;5.23;2.57;;;22.00;51.70;;;;;;5128470;28;20422;-81
2021/10/13 03:18:52;;;;;;;3.70;2.80;;;21.90;51.60;;;;;;5121422;28;20430;-81
2021/10/13 03:21:21;;;;;;;3.80;2.43;;;22.00;51.70;;;;;;5127676;28;20485;-82
2021/10/13 03:23:46;;;;;;;3.90;2.63;;;22.00;51.70;;;;;;5113381;28;20473;-81
2021/10/13 03:26:13;;;;;;;4.20;2.67;;;22.00;51.70;;;;;;5117836;28;20412;-82
2021/10/13 03:28:40;;;;;;;4.27;3.00;;;22.00;51.70;;;;;;5103334;28;20213;-81
2021/10/13 03:31:07;;;;;;;4.20;3.10;;;22.00;51.70;;;;;;5112686;28;20941;-82
2021/10/13 03:33:33;;;;;;;3.30;2.70;;;22.00;51.60;;;;;;5097092;28;20439;-81
2021/10/13 03:35:59;;;;;;;6.43;3.10;;;22.00;51.70;;;;;;5094884;28;20442;-81
2021/10/13 03:38:25;;;;;;;3.70;2.80;;;22.00;51.60;;;;;;5118920;28;20439;-82
2021/10/13 03:41:46;;;;;;;3.70;2.40;;;22.00;51.60;;;;;;5126929;28;20448;-82
2021/10/13 03:44:21;;;;;;;2.93;2.20;;;22.00;51.60;;;;;;5105337;28;20423;-82
2021/10/13 03:46:47;;;;;;;3.53;2.33;;;22.00;51.70;;;;;;5100460;28;20514;-82
2021/10/13 03:49:13;;;;;;;2.53;2.03;;;22.00;51.70;;;;;;5095065;28;20462;-82
2021/10/13 03:51:38;;;;;;;2.93;2.20;;;21.90;51.60;;;;;;5098105;28;20446;-82
2021/10/13 03:54:04;;;;;;;4.70;2.90;;;21.90;51.60;;;;;;5102090;28;20169;-82
2021/10/13 03:59:52;;;;;;;4.00;2.57;;;22.00;51.60;;;;;;5120245;28;20168;-82
2021/10/13 04:02:28;;;;;;;4.13;2.23;;;21.90;51.60;;;;;;5091064;28;20925;-81
2021/10/13 04:04:53;;;;;;;3.40;2.70;;;21.90;51.60;;;;;;5114753;28;20595;-82
2021/10/13 04:17:20;;;;;;;3.33;2.47;;;21.90;51.80;;;;;;5121758;28;20413;-82
2021/10/13 04:23:19;;;;;;;3.53;2.60;;;21.80;51.90;;;;;;5111251;28;20675;-82
2021/10/13 04:25:45;;;;;;;2.67;2.13;;;21.70;51.90;;;;;;5110904;28;20464;-82
2021/10/13 04:28:11;;;;;;;3.47;2.30;;;21.70;52.00;;;;;;5091229;28;20420;-82
2021/10/13 04:30:40;;;;;;;3.80;2.53;;;21.70;52.00;;;;;;5090719;28;20473;-83
2021/10/13 04:33:09;;;;;;;3.20;2.53;;;21.70;52.00;;;;;;5109130;28;20431;-82
2021/10/13 04:35:34;;;;;;;4.03;2.60;;;21.70;52.00;;;;;;5098391;28;20431;-82
2021/10/13 04:38:05;;;;;;;3.00;2.57;;;21.70;52.00;;;;;;5091991;28;20419;-81
2021/10/13 04:40:34;;;;;;;2.80;2.20;;;21.70;52.00;;;;;;5093689;28;20527;-81
2021/10/13 04:43:02;;;;;;;2.83;2.33;;;21.70;52.00;;;;;;5092446;28;20419;-82
2021/10/13 04:45:28;;;;;;;3.20;2.60;;;21.70;52.00;;;;;;5111495;28;20415;-82
2021/10/13 04:47:54;;;;;;;3.17;2.23;;;21.60;52.00;;;;;;5110096;28;20458;-83
2021/10/13 04:50:23;;;;;;;3.53;2.10;;;21.70;52.00;;;;;;5115688;28;20528;-83
2021/10/13 04:52:48;;;;;;;2.77;1.90;;;21.70;52.00;;;;;;5099389;28;20174;-83
2021/10/13 04:55:18;;;;;;;4.00;2.70;;;21.70;52.00;;;;;;5094521;28;20491;-83
2021/10/13 04:57:44;;;;;;;3.07;2.23;;;21.70;52.00;;;;;;5102063;28;20173;-82
2021/10/13 05:00:16;;;;;;;3.13;2.50;;;21.70;51.90;;;;;;5105135;28;20787;-83
2021/10/13 05:02:44;;;;;;;3.40;2.40;;;21.70;51.90;;;;;;5108885;27;20428;-81
2021/10/13 05:05:11;;;;;;;3.03;2.07;;;21.80;51.90;;;;;;5115809;27;20423;-82
2021/10/13 05:07:37;;;;;;;3.10;2.60;;;21.80;51.80;;;;;;5099897;28;20464;-84
2021/10/13 05:10:03;;;;;;;2.60;1.90;;;21.80;51.80;;;;;;5098664;28;20436;-83
2021/10/13 05:12:29;;;;;;;2.73;2.03;;;21.80;51.70;;;;;;5116744;28;20442;-83
2021/10/13 05:14:54;;;;;;;2.67;2.33;;;21.90;51.70;;;;;;5099010;27;20435;-83
2021/10/13 05:24:08;;;;;;;3.67;2.20;;;21.90;51.60;;;;;;5115721;28;20391;-83
2021/10/13 05:26:38;;;;;;;2.53;2.20;;;21.80;51.60;;;;;;5101223;28;20420;-83
2021/10/13 05:29:10;;;;;;;2.57;1.83;;;21.90;51.60;;;;;;5115667;28;20435;-83
2021/10/13 05:31:36;;;;;;;2.40;1.97;;;21.90;51.50;;;;;;5101130;28;20450;-82
2021/10/13 05:34:04;;;;;;;3.10;2.17;;;21.90;51.50;;;;;;5116065;28;20423;-82
2021/10/13 05:36:30;;;;;;;4.23;2.20;;;21.90;51.50;;;;;;5116139;28;20672;-83
2021/10/13 05:38:59;;;;;;;2.33;1.90;;;22.00;51.50;;;;;;5095904;28;20412;-83
2021/10/13 05:41:25;;;;;;;2.57;1.97;;;21.90;51.40;;;;;;5099824;28;20199;-84
2021/10/13 05:43:53;;;;;;;3.57;2.00;;;22.00;51.50;;;;;;5115329;28;20416;-82
2021/10/13 05:46:19;;;;;;;2.40;1.93;;;22.00;51.50;;;;;;5117019;28;20184;-83
2021/10/13 05:48:48;;;;;;;3.50;2.00;;;22.00;51.50;;;;;;5101563;28;20928;-82
2021/10/13 05:51:15;;;;;;;3.13;2.40;;;22.00;51.40;;;;;;5116344;28;20206;-82
2021/10/13 05:53:41;;;;;;;3.87;2.00;;;21.90;51.40;;;;;;5124562;28;20415;-83
2021/10/13 05:56:06;;;;;;;2.53;1.80;;;21.90;51.50;;;;;;5131304;28;20178;-82
2021/10/13 05:58:32;;;;;;;2.53;1.90;;;21.90;51.40;;;;;;5112732;28;20180;-82
2021/10/13 06:00:58;;;;;;;3.07;1.90;;;21.90;51.40;;;;;;5110996;28;20215;-82
2021/10/13 06:03:24;;;;;;;2.40;1.90;;;21.90;51.50;;;;;;5111980;28;20168;-83
2021/10/13 06:05:50;;;;;;;3.10;2.20;;;21.90;51.50;;;;;;5112409;28;20180;-83
2021/10/13 06:08:16;;;;;;;2.50;1.90;;;21.90;51.50;;;;;;5112485;28;20176;-82
2021/10/13 06:10:42;;;;;;;2.10;1.80;;;21.90;51.50;;;;;;5112476;28;20537;-82
2021/10/13 06:13:10;;;;;;;2.30;1.70;;;21.90;51.50;;;;;;5112672;28;20410;-83
2021/10/13 06:15:38;;;;;;;3.90;2.30;;;21.90;51.50;;;;;;5113204;28;20440;-83
2021/10/13 06:18:08;;;;;;;2.60;2.10;;;21.90;51.50;;;;;;5133467;27;20414;-82
2021/10/13 06:20:44;;;;;;;2.10;1.67;;;21.90;51.50;;;;;;5128070;28;20434;-83
2021/10/13 06:23:10;;;;;;;3.17;2.33;;;21.90;51.50;;;;;;5112515;28;20943;-82
2021/10/13 06:25:36;;;;;;;2.40;1.70;;;21.90;51.50;;;;;;5130688;28;20478;-82
2021/10/13 06:28:02;;;;;;;2.60;2.13;;;21.90;51.50;;;;;;5127255;27;20452;-83
2021/10/13 06:30:33;;;;;;;2.90;2.00;;;21.90;51.50;;;;;;5133394;27;20196;-82
2021/10/13 06:33:01;;;;;;;3.57;1.90;;;21.90;51.50;;;;;;5132249;28;20417;-82
2021/10/13 06:35:30;;;;;;;2.30;1.83;;;21.90;51.50;;;;;;5151238;27;20393;-83
2021/10/13 06:37:59;;;;;;;2.33;1.83;;;22.00;51.50;;;;;;5150433;27;20409;-83
2021/10/13 06:40:27;;;;;;;2.87;1.70;;;22.00;51.50;;;;;;5131722;27;20418;-83
2021/10/13 06:42:53;;;;;;;2.10;1.47;;;22.00;51.50;;;;;;5131868;28;20416;-84
2021/10/13 06:45:19;;;;;;;1.80;1.60;;;22.00;51.40;;;;;;5131875;27;20484;-83
2021/10/13 06:47:45;;;;;;;2.47;1.50;;;22.00;51.40;;;;;;5150184;28;20259;-84
2021/10/13 06:50:11;;;;;;;2.07;1.50;;;22.10;51.50;;;;;;5130941;28;20442;-83
2021/10/13 06:52:40;;;;;;;2.93;2.30;;;22.10;51.50;;;;;;5131139;28;20184;-83
2021/10/13 06:55:23;;;;;;;1.97;1.70;;;22.10;51.40;;;;;;5133276;28;20172;-84
2021/10/13 06:58:05;;;;;;;2.33;1.77;;;22.10;51.40;;;;;;5129679;28;20437;-84
2021/10/13 07:00:31;;;;;;;2.50;1.70;;;22.10;51.40;;;;;;5091376;28;20415;-84
2021/10/13 07:02:57;;;;;;;3.30;1.83;;;22.10;51.40;;;;;;5109204;28;20407;-84
2021/10/13 07:05:27;;;;;;;2.53;1.70;;;22.10;51.40;;;;;;5091464;28;20419;-84
2021/10/13 07:11:05;;;;;;;1.90;1.40;;;22.10;51.40;;;;;;5104884;28;20560;-84
2021/10/13 07:13:38;;;;;;;2.57;1.70;;;22.10;51.40;;;;;;5108427;28;20388;-84
2021/10/13 07:16:13;;;;;;;2.10;1.90;;;22.10;51.40;;;;;;5109137;28;20428;-84
2021/10/13 07:18:46;;;;;;;2.00;1.40;;;22.10;51.40;;;;;;5091221;28;20439;-84
2021/10/13 07:21:14;;;;;;;1.77;1.53;;;22.10;51.50;;;;;;5091980;28;20769;-84
2021/10/13 07:23:40;;;;;;;2.03;1.60;;;22.00;51.40;;;;;;5113055;28;20417;-84
2021/10/13 07:26:06;;;;;;;3.17;2.30;;;22.00;51.40;;;;;;5094500;28;20423;-84
2021/10/13 07:28:39;;;;;;;1.30;1.17;;;22.00;51.40;;;;;;5094758;28;20416;-84
2021/10/13 07:31:06;;;;;;;1.40;1.30;;;22.00;51.40;;;;;;5113001;28;20435;-84
2021/10/13 07:33:32;;;;;;;2.37;1.40;;;22.00;51.50;;;;;;5094250;28;20454;-84
2021/10/13 07:35:59;;;;;;;3.17;1.40;;;22.00;51.50;;;;;;5112496;28;20420;-83
2021/10/13 07:38:26;;;;;;;2.90;1.80;;;22.00;51.50;;;;;;5095364;28;20415;-84
2021/10/13 07:40:57;;;;;;;2.00;1.50;;;22.00;51.50;;;;;;5095665;28;20423;-84
2021/10/13 07:43:24;;;;;;;2.53;1.60;;;21.90;51.50;;;;;;5079108;28;20416;-84
2021/10/13 07:52:43;;;;;;;1.70;1.30;;;22.00;51.60;;;;;;5116803;28;20479;-84
2021/10/13 07:55:10;;;;;;;2.13;1.50;;;21.90;51.60;;;;;;5098533;28;20404;-85
2021/10/13 07:57:42;;;;;;;1.57;1.27;;;21.90;51.60;;;;;;5082430;28;20436;-85
2021/10/13 08:00:20;;;;;;;;;;;;;;;;;;;;;
2021/10/13 08:02:49;;;;;;;2.00;1.40;;;21.90;51.60;;;;;;5116431;28;20423;-85
2021/10/13 08:05:24;;;;;;;2.30;1.57;;;21.90;51.60;;;;;;5082132;28;20415;-85
2021/10/13 08:08:10;;;;;;;2.43;1.40;;;22.00;51.60;;;;;;5116397;28;20371;-85
2021/10/13 08:10:42;;;;;;;2.03;1.30;;;22.00;51.60;;;;;;5082091;28;20447;-84
2021/10/13 08:13:12;;;;;;;2.10;1.50;;;21.90;51.60;;;;;;5099033;28;20399;-84
2021/10/13 08:16:01;;;;;;;1.50;1.10;;;21.90;51.60;;;;;;5080728;28;20400;-84
2021/10/13 08:18:29;;;;;;;1.53;1.30;;;22.00;51.60;;;;;;5098294;28;20404;-84
2021/10/13 08:21:02;;;;;;;1.93;1.60;;;22.00;51.60;;;;;;5098028;28;20415;-84
2021/10/13 08:23:28;;;;;;;1.77;1.27;;;22.00;51.60;;;;;;5097711;28;20419;-83
2021/10/13 08:26:08;;;;;;;2.40;1.67;;;22.00;51.60;;;;;;5097589;28;20426;-84
2021/10/13 08:28:42;;;;;;;2.50;1.70;;;22.00;51.60;;;;;;5098093;28;20180;-84
2021/10/13 08:31:17;;;;;;;2.70;1.50;;;22.00;51.50;;;;;;5098113;28;20451;-83
2021/10/13 08:33:47;;;;;;;2.47;1.50;;;22.00;51.50;;;;;;5110402;28;20513;-84
2021/10/13 08:36:16;;;;;;;3.93;1.37;;;22.00;51.50;;;;;;5151328;27;20406;-84
2021/10/13 08:38:46;;;;;;;2.73;2.23;;;22.00;51.50;;;;;;5156065;27;20479;-84
2021/10/13 08:41:13;;;;;;;2.20;1.70;;;22.00;51.50;;;;;;5137839;27;20550;-84
2021/10/13 08:43:42;;;;;;;2.00;1.40;;;22.00;51.50;;;;;;5135519;27;20617;-83
2021/10/13 08:46:15;;;;;;;1.70;1.33;;;22.00;51.50;;;;;;5128724;28;20403;-84
2021/10/13 08:48:43;;;;;;;1.83;1.57;;;22.00;51.50;;;;;;5113410;28;20399;-84
2021/10/13 08:51:18;;;;;;;1.70;1.40;;;22.00;51.50;;;;;;5102367;28;20451;-84
2021/10/13 08:53:47;;;;;;;2.30;1.50;;;22.00;51.50;;;;;;5130936;27;20896;-83
2021/10/13 08:56:17;;;;;;;1.70;1.30;;;22.00;51.60;;;;;;5101837;28;20439;-84
2021/10/13 08:58:44;;;;;;;2.50;1.40;;;22.00;51.50;;;;;;5093275;28;20177;-83
2021/10/13 09:01:29;;;;;;;2.20;1.63;;;22.00;51.50;;;;;;5095184;28;20978;-83
2021/10/13 09:04:00;;;;;;;5.03;1.70;;;22.00;51.50;;;;;;5111444;28;20408;-83
2021/10/13 09:06:31;;;;;;;1.73;1.10;;;22.00;51.50;;;;;;5090616;28;20920;-83
2021/10/13 09:09:02;;;;;;;2.03;1.57;;;22.00;51.50;;;;;;5109137;28;20399;-82
2021/10/13 09:18:07;;;;;;;2.00;1.23;;;22.00;51.50;;;;;;5108193;28;20386;-82
2021/10/13 09:20:38;;;;;;;1.77;1.20;;;22.00;51.60;;;;;;5091653;28;20485;-82
2021/10/13 09:23:26;;;;;;;1.87;1.67;;;22.00;51.70;;;;;;5091521;28;20415;-81
2021/10/13 09:26:19;;;;;;;1.80;1.33;;;22.10;51.60;;;;;;5091610;28;20408;-82
2021/10/13 09:28:58;;;;;;;3.47;1.67;;;22.00;51.50;;;;;;5090800;28;20412;-82
2021/10/13 09:31:26;;;;;;;1.60;1.50;;;22.10;51.60;;;;;;5090148;28;20458;-82
2021/10/13 09:33:56;;;;;;;1.70;1.17;;;22.10;51.60;;;;;;5089357;28;20946;-83
2021/10/13 09:36:40;;;;;;;2.20;1.60;;;22.10;51.60;;;;;;5088379;28;20412;-82
2021/10/13 09:39:11;;;;;;;4.50;1.30;;;22.10;51.60;;;;;;5088780;28;20435;-82
2021/10/13 09:41:55;;;;;;;1.43;1.27;;;22.10;51.60;;;;;;5106037;28;20411;-82
2021/10/13 09:44:21;;;;;;;2.27;1.40;;;22.20;51.60;;;;;;5105642;28;20499;-82
2021/10/13 09:46:48;;;;;;;1.93;1.30;;;22.10;51.50;;;;;;5087219;28;20437;-82
2021/10/13 09:49:54;;;;;;;2.80;1.30;;;22.10;51.50;;;;;;5088738;28;20480;-82
2021/10/13 09:52:28;;;;;;;1.90;1.50;;;22.10;51.50;;;;;;5081683;28;20996;-82
2021/10/13 09:55:08;;;;;;;3.60;1.33;;;22.10;51.50;;;;;;5105782;28;20424;-83
2021/10/13 09:57:41;;;;;;;2.27;1.50;;;22.10;51.50;;;;;;5086847;28;20412;-81
2021/10/13 10:00:46;;;;;;;1.80;1.20;;;22.10;51.50;;;;;;5105879;28;20447;-82
2021/10/13 10:03:37;;;;;;;1.47;1.20;;;22.10;51.50;;;;;;5104021;28;20423;-82
2021/10/13 10:06:05;;;;;;;2.23;1.30;;;22.10;51.40;;;;;;5108078;28;20392;-82
2021/10/13 10:08:58;;;;;;;3.03;1.40;;;22.10;51.40;;;;;;5106287;28;20407;-82
2021/10/13 10:11:47;;;;;;;2.43;1.60;;;22.20;51.40;;;;;;5090007;28;20463;-82
2021/10/13 10:14:45;;;;;;;2.23;1.40;;;22.20;51.40;;;;;;5090225;28;20404;-82
2021/10/13 10:17:34;;;;;;;1.73;1.43;;;22.20;51.40;;;;;;5113298;28;20414;-82
2021/10/13 10:20:02;;;;;;;2.23;1.30;;;22.20;51.40;;;;;;5094527;28;20416;-82
2021/10/13 10:22:48;;;;;;;1.40;1.20;;;22.20;51.40;;;;;;5111364;28;20476;-82
2021/10/13 10:25:14;;;;;;;2.20;1.77;;;22.20;51.40;;;;;;5112654;28;20470;-81
2021/10/13 10:27:45;;;;;;;2.20;1.30;;;22.20;51.40;;;;;;5110718;28;20912;-82
2021/10/13 10:30:22;;;;;;;1.60;1.20;;;22.20;51.40;;;;;;5131863;28;20161;-82
2021/10/13 10:32:57;;;;;;;1.27;0.90;;;22.20;51.40;;;;;;5117958;28;20414;-81
2021/10/13 10:35:25;;;;;;;1.67;1.23;;;22.20;51.30;;;;;;5120491;28;20414;-81
2021/10/13 10:38:06;;;;;;;3.30;1.77;;;22.20;51.30;;;;;;5138511;28;20407;-81
2021/10/13 10:40:40;;;;;;;3.87;2.07;;;22.20;51.30;;;;;;5138043;28;20382;-81
2021/10/13 10:43:17;;;;;;;4.37;2.60;;;22.20;51.30;;;;;;5119360;28;20907;-82
2021/10/13 10:45:51;;;;;;;3.57;2.37;;;22.20;51.30;;;;;;5136582;28;20393;-81
2021/10/13 10:48:24;;;;;;;3.03;2.13;;;22.30;51.40;;;;;;5133315;28;20485;-82
2021/10/13 10:51:16;;;;;;;5.90;2.93;;;22.30;51.30;;;;;;5134840;28;20446;-82
2021/10/13 10:53:44;;;;;;;7.03;2.87;;;22.30;51.30;;;;;;5001066;28;20404;-82
2021/10/13 10:56:41;;;;;;;3.00;1.90;;;22.20;51.20;;;;;;5016594;28;20412;-84
2021/10/13 10:59:14;;;;;;;4.00;2.63;;;22.30;51.30;;;;;;5015767;28;20408;-82
2021/10/13 11:02:07;;;;;;;4.30;2.20;;;22.30;51.30;;;;;;5016617;28;20419;-82
2021/10/13 11:04:33;;;;;;;4.40;2.60;;;22.30;51.30;;;;;;5032496;28;20430;-82
2021/10/13 11:07:03;;;;;;;3.70;2.70;;;22.30;51.30;;;;;;5013186;28;20429;-82
2021/10/13 11:09:29;;;;;;;4.80;3.40;;;22.30;51.30;;;;;;5012848;28;20408;-82
2021/10/13 11:11:56;;;;;;;5.80;4.33;;;22.30;51.20;;;;;;5013095;28;20537;-82
2021/10/13 11:18:26;;;;;;;10.43;6.10;;;22.30;51.20;;;;;;5013300;28;20423;-81
2021/10/13 11:21:17;;;;;;;8.30;6.00;;;22.30;51.30;;;;;;5014780;28;20435;-81
2021/10/13 11:23:43;;;;;;;10.50;7.77;;;22.30;51.30;;;;;;5016693;28;20415;-81
2021/10/13 11:26:11;;;;;;;10.93;8.10;;;22.20;51.30;;;;;;5000711;28;20480;-82
2021/10/13 11:28:40;;;;;;;9.37;7.67;;;22.20;51.30;;;;;;5020477;28;20396;-81
2021/10/13 11:31:08;;;;;;;12.07;9.73;;;22.20;51.30;;;;;;5073745;28;20448;-81
2021/10/13 11:33:37;;;;;;;13.10;10.03;;;22.30;51.30;;;;;;5062530;28;20511;-79
2021/10/13 11:41:31;;;;;;;13.87;10.20;;;22.30;51.30;;;;;;5323937;22;20478;-81
2021/10/13 11:46:37;;;;;;;13.40;9.70;;;22.30;51.90;;;;;;5569320;23;20473;-82
2021/10/13 11:49:04;;;;;;;13.70;10.23;;;22.30;51.30;;;;;;5476161;22;20473;-84
2021/10/13 11:51:35;;;;;;;15.87;10.80;;;22.30;51.30;;;;;;5526126;22;20565;-81
2021/10/13 11:54:03;;;;;;;13.10;10.57;;;22.30;51.30;;;;;;5037403;28;20409;-81
2021/10/13 11:56:40;;;;;;;13.30;9.00;;;22.30;51.20;;;;;;5055639;28;20391;-81
2021/10/13 11:59:12;;;;;;;12.10;10.07;;;22.30;51.20;;;;;;5054881;28;20817;-82
2021/10/13 12:01:38;;;;;;;12.50;10.20;;;22.30;51.20;;;;;;5038959;28;20411;-81
2021/10/13 12:04:11;;;;;;;14.23;10.30;;;22.30;51.20;;;;;;5038547;28;20437;-81
2021/10/13 12:06:42;;;;;;;12.70;9.80;;;22.30;51.20;;;;;;5023817;28;20176;-81
2021/10/13 12:09:17;;;;;;;12.40;9.73;;;22.30;51.20;;;;;;5044344;28;20407;-80
2021/10/13 12:12:37;;;;;;;10.50;9.30;;;22.30;51.20;;;;;;5060828;28;20451;-80
2021/10/13 12:17:44;;;;;;;9.40;7.80;;;22.30;51.20;;;;;;5308736;22;20477;-81
2021/10/13 12:20:25;;;;;;;10.50;6.93;;;22.30;51.30;;;;;;5044575;28;20488;-81
2021/10/13 12:22:55;;;;;;;9.70;7.70;;;22.30;51.30;;;;;;5061392;28;20405;-80
2021/10/13 12:25:50;;;;;;;10.77;9.63;;;22.30;51.30;;;;;;5058782;28;20462;-80
2021/10/13 12:31:59;;;;;;;14.87;10.30;;;22.30;51.30;;;;;;5282509;22;20536;-82
2021/10/13 12:37:57;;;;;;;8.70;7.30;;;22.20;51.40;;;;;;5060795;28;20418;-81
2021/10/13 12:44:05;;;;;;;;;;;;;;;;;;;;;
2021/10/13 12:47:34;;;;;;;13.00;9.13;;;22.20;51.50;;;;;;5050067;28;20414;-81
2021/10/13 12:50:37;;;;;;;12.60;9.90;;;22.20;51.50;;;;;;5187756;23;20508;-81
2021/10/13 12:53:03;;;;;;;11.90;9.77;;;22.10;51.40;;;;;;5080646;28;20413;-81
2021/10/13 12:58:05;;;;;;;12.73;9.30;;;22.10;51.50;;;;;;5187280;22;20231;-80
2021/10/13 13:00:38;;;;;;;8.73;7.40;;;22.10;51.50;;;;;;5043078;28;20433;-81
2021/10/13 13:03:04;;;;;;;12.07;9.80;;;22.20;51.50;;;;;;5060199;28;20155;-80
2021/10/13 13:05:37;;;;;;;11.87;8.73;;;22.20;52.10;;;;;;5043070;28;20406;-81
2021/10/13 13:08:03;;;;;;;13.30;9.47;;;22.20;51.50;;;;;;5059111;28;20160;-81
2021/10/13 13:10:32;;;;;;;11.20;9.33;;;22.20;51.40;;;;;;5064502;28;20469;-80
2021/10/13 13:13:01;;;;;;;10.13;9.07;;;22.20;51.40;;;;;;5036696;28;20470;-81
2021/10/13 13:15:30;;;;;;;11.87;10.03;;;22.20;51.40;;;;;;5065825;28;20425;-81
2021/10/13 13:17:55;;;;;;;12.47;9.03;;;22.20;51.40;;;;;;5052325;28;20434;-82
2021/10/13 13:27:18;;;;;;;11.47;9.90;;;22.20;51.30;;;;;;4948522;28;20944;-81
2021/10/13 13:29:51;;;;;;;11.87;10.37;;;22.20;51.40;;;;;;4951126;29;20415;-81
2021/10/13 13:32:17;;;;;;;11.83;10.17;;;22.20;51.40;;;;;;4935132;29;20525;-81
2021/10/13 13:34:42;;;;;;;14.00;11.60;;;22.20;51.40;;;;;;4935174;29;20418;-81
2021/10/13 13:37:20;;;;;;;13.80;10.43;;;22.30;51.40;;;;;;4950944;29;20423;-81
2021/10/13 13:39:49;;;;;;;11.53;10.03;;;22.30;51.40;;;;;;4950713;29;20190;-82
2021/10/13 13:45:43;;;;;;;14.27;10.97;;;22.30;51.30;;;;;;4952338;29;20430;-81
2021/10/13 13:48:24;;;;;;;13.67;10.30;;;22.30;51.30;;;;;;4951797;29;20533;-81
2021/10/13 13:50:59;;;;;;;14.17;11.30;;;22.30;51.30;;;;;;4951096;29;20478;-81
2021/10/13 13:53:33;;;;;;;13.30;11.93;;;22.30;51.30;;;;;;4951686;29;20514;-81
2021/10/13 13:56:02;;;;;;;14.20;11.00;;;22.30;51.30;;;;;;4935546;29;20498;-82
2021/10/13 13:58:36;;;;;;;14.67;11.80;;;22.30;51.30;;;;;;4935448;29;20422;-81
2021/10/13 14:01:05;;;;;;;12.00;10.80;;;22.30;51.30;;;;;;5033661;28;20926;-81
2021/10/13 14:03:41;;;;;;;15.77;11.63;;;22.30;51.30;;;;;;5032389;28;20425;-81
2021/10/13 14:12:51;;;;;;;13.43;12.13;;;22.30;51.40;;;;;;5008750;28;20420;-81
2021/10/13 14:15:17;;;;;;;15.20;12.97;;;22.20;51.40;;;;;;4991787;28;20439;-82
2021/10/13 14:17:46;;;;;;;17.77;14.07;;;22.20;51.40;;;;;;4991719;28;20401;-81
2021/10/13 14:20:15;;;;;;;16.10;13.87;;;22.20;51.40;;;;;;4991602;28;20408;-82
2021/10/13 14:22:41;;;;;;;12.87;11.50;;;22.20;51.40;;;;;;4991512;28;20469;-82
2021/10/13 14:25:10;;;;;;;16.20;13.63;;;22.20;51.40;;;;;;4991901;28;20419;-81
2021/10/13 14:27:36;;;;;;;17.80;15.87;;;22.20;51.40;;;;;;4991982;28;20177;-82
2021/10/13 14:30:22;;;;;;;16.90;13.83;;;22.20;51.40;;;;;;5008064;28;20420;-82
2021/10/13 14:32:48;;;;;;;18.30;14.80;;;22.20;51.50;;;;;;4992048;28;20439;-82
2021/10/13 14:35:17;;;;;;;17.27;12.83;;;22.20;51.50;;;;;;5008514;28;20443;-82
2021/10/13 14:37:46;;;;;;;15.20;13.60;;;22.20;51.50;;;;;;4992154;28;20519;-82
2021/10/13 14:40:15;;;;;;;17.67;15.77;;;22.20;51.50;;;;;;5036395;28;20445;-81
2021/10/13 14:42:51;;;;;;;15.53;12.77;;;22.20;51.50;;;;;;5032519;28;20445;-81
2021/10/13 14:45:48;;;;;;;18.77;14.67;;;22.20;51.50;;;;;;5031314;28;20426;-81
2021/10/13 14:48:14;;;;;;;13.53;11.50;;;22.20;51.50;;;;;;4991292;28;20426;-82
2021/10/13 14:50:48;;;;;;;13.33;10.83;;;22.20;51.60;;;;;;5031838;28;20458;-81